createdAt,value
2018-09-27T00:00:26.459Z,9.77
2018-09-27T00:02:55.477Z,10.83
2018-09-27T00:05:23.979Z,10.23
2018-09-27T00:07:52.520Z,10.60
2018-09-27T00:10:21.048Z,10.40
2018-09-27T00:12:49.561Z,9.53
2018-09-27T00:15:18.061Z,10.10
2018-09-27T00:17:46.566Z,10.13
2018-09-27T00:20:15.070Z,10.03
2018-09-27T00:22:43.700Z,10.17
2018-09-27T00:25:12.185Z,9.53
2018-09-27T00:27:40.700Z,10.43
2018-09-27T00:30:10.340Z,10.27
2018-09-27T00:32:38.948Z,11.03
2018-09-27T00:35:07.586Z,10.00
2018-09-27T00:37:36.485Z,9.80
2018-09-27T00:40:05.751Z,10.43
2018-09-27T00:42:34.313Z,10.50
2018-09-27T00:45:04.864Z,10.10
2018-09-27T00:47:33.348Z,10.20
2018-09-27T00:50:03.100Z,10.23
2018-09-27T00:52:31.618Z,11.53
2018-09-27T00:55:00.171Z,10.07
2018-09-27T00:57:33.207Z,10.70
2018-09-27T01:00:03.000Z,10.70
2018-09-27T01:02:31.485Z,10.63
2018-09-27T01:04:59.980Z,11.27
2018-09-27T01:07:28.893Z,10.07
2018-09-27T01:09:57.789Z,10.40
2018-09-27T01:12:26.268Z,10.67
2018-09-27T01:14:54.960Z,10.57
2018-09-27T01:17:23.436Z,10.47
2018-09-27T01:19:52.056Z,11.17
2018-09-27T01:22:20.646Z,11.30
2018-09-27T01:24:49.163Z,11.17
2018-09-27T01:27:17.991Z,10.83
2018-09-27T01:29:46.496Z,10.90
2018-09-27T01:32:15.009Z,11.00
2018-09-27T01:34:43.567Z,11.70
2018-09-27T01:37:12.097Z,11.37
2018-09-27T01:39:40.773Z,11.40
2018-09-27T01:42:09.316Z,12.00
2018-09-27T01:44:37.886Z,11.47
2018-09-27T01:47:06.451Z,11.77
2018-09-27T01:49:34.964Z,11.60
2018-09-27T01:52:06.562Z,11.40
2018-09-27T01:54:35.388Z,11.57
2018-09-27T01:57:05.718Z,12.37
2018-09-27T01:59:34.272Z,12.90
2018-09-27T02:02:05.732Z,11.67
2018-09-27T02:04:34.380Z,12.27
2018-09-27T02:07:06.193Z,11.93
2018-09-27T02:09:34.730Z,12.60
2018-09-27T02:12:04.561Z,12.83
2018-09-27T02:14:33.040Z,13.20
2018-09-27T02:17:02.849Z,12.23
2018-09-27T02:19:31.427Z,12.53
2018-09-27T02:21:59.927Z,12.60
2018-09-27T02:24:28.426Z,12.57
2018-09-27T02:26:56.905Z,13.20
2018-09-27T02:29:25.454Z,13.27
2018-09-27T02:31:53.966Z,13.20
2018-09-27T02:34:22.493Z,12.67
2018-09-27T02:36:50.983Z,12.57
2018-09-27T02:39:19.689Z,12.97
2018-09-27T02:41:48.188Z,13.13
2018-09-27T02:44:16.817Z,12.77
2018-09-27T02:46:45.349Z,12.73
2018-09-27T02:49:14.889Z,12.50
2018-09-27T02:51:43.482Z,12.47
2018-09-27T02:54:12.006Z,12.70
2018-09-27T02:56:40.525Z,12.57
2018-09-27T02:59:09.137Z,12.27
2018-09-27T03:01:37.877Z,13.30
2018-09-27T03:04:06.441Z,12.83
2018-09-27T03:06:34.945Z,13.53
2018-09-27T03:09:09.526Z,13.90
2018-09-27T03:11:38.046Z,13.97
2018-09-27T03:14:06.598Z,13.27
2018-09-27T03:16:35.215Z,12.93
2018-09-27T03:19:04.773Z,14.00
2018-09-27T03:21:33.293Z,13.03
2018-09-27T03:24:04.999Z,14.03
2018-09-27T03:26:33.531Z,13.80
2018-09-27T03:29:06.773Z,13.83
2018-09-27T03:31:35.410Z,13.70
2018-09-27T03:34:05.284Z,13.73
2018-09-27T03:36:33.957Z,13.43
2018-09-27T03:39:05.038Z,14.87
2018-09-27T03:41:33.556Z,13.23
2018-09-27T03:44:03.770Z,13.60
2018-09-27T03:46:32.314Z,13.50
2018-09-27T03:49:03.327Z,14.37
2018-09-27T03:51:31.866Z,14.37
2018-09-27T03:54:00.440Z,13.80
2018-09-27T03:56:30.837Z,15.03
2018-09-27T03:59:03.107Z,14.77
2018-09-27T04:01:31.767Z,13.90
2018-09-27T04:04:00.284Z,14.43
2018-09-27T04:06:28.791Z,13.47
2018-09-27T04:08:57.299Z,14.60
2018-09-27T04:11:25.833Z,13.40
2018-09-27T04:13:54.851Z,14.30
2018-09-27T04:16:23.357Z,13.40
2018-09-27T04:18:51.857Z,13.07
2018-09-27T04:21:20.381Z,13.20
2018-09-27T04:23:48.884Z,13.07
2018-09-27T04:26:17.413Z,13.87
2018-09-27T04:28:45.972Z,14.00
2018-09-27T04:31:14.473Z,14.53
2018-09-27T04:33:43.111Z,13.00
2018-09-27T04:36:11.633Z,13.37
2018-09-27T04:38:40.187Z,13.20
2018-09-27T04:41:08.698Z,14.03
2018-09-27T04:43:37.209Z,14.00
2018-09-27T04:46:06.808Z,13.13
2018-09-27T04:48:35.326Z,13.03
2018-09-27T04:51:05.414Z,12.87
2018-09-27T04:53:33.934Z,13.93
2018-09-27T04:56:04.067Z,13.20
2018-09-27T04:58:32.613Z,13.10
2018-09-27T05:01:03.296Z,13.87
2018-09-27T05:03:31.904Z,13.30
2018-09-27T05:06:00.579Z,12.67
2018-09-27T05:08:29.228Z,13.53
2018-09-27T05:10:57.756Z,13.07
2018-09-27T05:13:26.291Z,13.17
2018-09-27T05:15:54.836Z,12.77
2018-09-27T05:18:23.987Z,13.37
2018-09-27T05:20:58.269Z,13.90
2018-09-27T05:23:26.797Z,13.57
2018-09-27T05:25:55.288Z,13.23
2018-09-27T05:28:23.799Z,13.43
2018-09-27T05:30:52.547Z,13.27
2018-09-27T05:33:21.046Z,12.57
2018-09-27T05:35:49.622Z,12.90
2018-09-27T05:38:18.169Z,13.37
2018-09-27T05:40:46.855Z,12.93
2018-09-27T05:43:15.668Z,13.20
2018-09-27T05:45:44.267Z,13.10
2018-09-27T05:48:12.809Z,13.10
2018-09-27T05:50:41.352Z,12.87
2018-09-27T05:53:09.901Z,12.90
2018-09-27T05:55:38.768Z,13.27
2018-09-27T05:58:07.327Z,13.47
2018-09-27T06:00:36.265Z,12.43
2018-09-27T06:03:05.568Z,13.27
2018-09-27T06:05:34.053Z,13.90
2018-09-27T06:08:03.781Z,13.40
2018-09-27T06:10:32.316Z,13.77
2018-09-27T06:13:02.879Z,13.10
2018-09-27T06:15:31.373Z,12.67
2018-09-27T06:18:00.189Z,13.33
2018-09-27T06:20:28.733Z,13.70
2018-09-27T06:22:57.291Z,12.97
2018-09-27T06:25:25.820Z,13.50
2018-09-27T06:27:54.382Z,13.73
2018-09-27T06:30:22.875Z,12.80
2018-09-27T06:32:51.576Z,12.67
2018-09-27T06:35:20.121Z,13.30
2018-09-27T06:37:48.621Z,13.13
2018-09-27T06:40:17.632Z,13.93
2018-09-27T06:42:46.189Z,12.77
2018-09-27T06:45:14.785Z,12.90
2018-09-27T06:47:43.293Z,13.50
2018-09-27T06:50:11.817Z,13.60
2018-09-27T06:52:40.303Z,13.30
2018-09-27T06:55:09.063Z,13.53
2018-09-27T06:57:37.654Z,13.90
2018-09-27T07:00:06.235Z,13.00
2018-09-27T07:02:34.833Z,13.90
2018-09-27T07:05:04.891Z,14.33
2018-09-27T07:07:33.440Z,13.57
2018-09-27T07:10:03.996Z,13.40
2018-09-27T07:12:32.698Z,13.40
2018-09-27T07:15:03.473Z,13.97
2018-09-27T07:17:32.239Z,13.80
2018-09-27T07:20:00.741Z,13.77
2018-09-27T07:22:29.306Z,13.80
2018-09-27T07:24:57.855Z,14.43
2018-09-27T07:27:26.358Z,13.90
2018-09-27T07:29:54.898Z,13.57
2018-09-27T07:32:23.443Z,14.03
2018-09-27T07:34:51.956Z,14.13
2018-09-27T07:37:20.593Z,12.80
2018-09-27T07:39:49.144Z,12.70
2018-09-27T07:42:17.669Z,13.30
2018-09-27T07:44:46.180Z,13.07
2018-09-27T07:47:14.701Z,13.37
2018-09-27T07:49:43.189Z,13.43
2018-09-27T07:52:12.053Z,12.83
2018-09-27T07:54:40.930Z,12.63
2018-09-27T07:57:09.626Z,13.80
2018-09-27T07:59:39.081Z,12.87
2018-09-27T08:02:07.634Z,13.30
2018-09-27T08:04:43.013Z,12.50
2018-09-27T08:07:11.598Z,12.60
2018-09-27T08:09:40.211Z,12.63
2018-09-27T08:12:08.716Z,12.73
2018-09-27T08:14:37.244Z,12.30
2018-09-27T08:17:06.065Z,11.93
2018-09-27T08:19:34.577Z,11.73
2018-09-27T08:22:04.826Z,11.70
2018-09-27T08:24:33.345Z,11.23
2018-09-27T08:27:02.737Z,10.80
2018-09-27T08:29:31.390Z,11.50
2018-09-27T08:32:01.220Z,11.43
2018-09-27T08:34:29.848Z,11.20
2018-09-27T08:36:58.373Z,11.77
2018-09-27T08:39:26.985Z,11.27
2018-09-27T08:41:55.473Z,11.33
2018-09-27T08:44:24.138Z,11.53
2018-09-27T08:46:52.672Z,11.03
2018-09-27T08:49:21.337Z,11.63
2018-09-27T08:51:49.875Z,11.03
2018-09-27T08:54:18.386Z,11.03
2018-09-27T08:56:46.951Z,10.57
2018-09-27T08:59:15.719Z,10.27
2018-09-27T09:01:44.349Z,10.50
2018-09-27T09:04:12.970Z,11.00
2018-09-27T09:06:41.467Z,9.80
2018-09-27T09:09:11.822Z,10.40
2018-09-27T09:11:40.890Z,10.00
2018-09-27T09:14:10.680Z,10.10
2018-09-27T09:16:39.665Z,9.87
2018-09-27T09:19:09.648Z,9.70
2018-09-27T09:21:38.858Z,10.17
2018-09-27T09:24:07.341Z,9.63
2018-09-27T09:26:35.891Z,9.87
2018-09-27T09:29:05.595Z,8.83
2018-09-27T09:31:34.165Z,8.10
2018-09-27T09:34:04.722Z,7.50
2018-09-27T09:36:33.517Z,8.97
2018-09-27T09:39:05.201Z,8.00
2018-09-27T09:41:34.103Z,8.30
2018-09-27T09:44:03.892Z,7.53
2018-09-27T09:46:32.685Z,7.43
2018-09-27T09:49:02.647Z,6.73
2018-09-27T09:51:31.193Z,7.57
2018-09-27T09:53:59.715Z,7.10
2018-09-27T09:56:28.212Z,6.60
2018-09-27T09:58:58.123Z,6.10
2018-09-27T10:01:26.641Z,6.10
2018-09-27T10:03:55.151Z,5.90
2018-09-27T10:06:23.681Z,6.27
2018-09-27T10:08:52.206Z,6.33
2018-09-27T10:11:20.998Z,5.70
2018-09-27T10:13:49.500Z,5.40
2018-09-27T10:16:17.995Z,5.53
2018-09-27T10:18:46.597Z,5.90
2018-09-27T10:21:15.112Z,5.67
2018-09-27T10:23:43.629Z,5.20
2018-09-27T10:26:12.389Z,5.23
2018-09-27T10:28:41.124Z,5.77
2018-09-27T10:31:09.965Z,5.20
2018-09-27T10:33:38.817Z,5.80
2018-09-27T10:36:07.643Z,5.63
2018-09-27T10:38:36.354Z,5.20
2018-09-27T10:41:05.117Z,5.67
2018-09-27T10:43:33.851Z,5.93
2018-09-27T10:46:03.394Z,6.63
2018-09-27T10:48:32.202Z,6.67
2018-09-27T10:51:00.822Z,6.80
2018-09-27T10:53:30.495Z,6.30
2018-09-27T10:55:58.997Z,6.60
2018-09-27T10:58:27.510Z,6.53
2018-09-27T11:00:56.045Z,6.80
2018-09-27T11:03:24.611Z,6.70
2018-09-27T11:05:53.149Z,6.50
2018-09-27T11:08:21.649Z,6.97
2018-09-27T11:10:50.148Z,6.33
2018-09-27T11:13:18.658Z,6.23
2018-09-27T11:15:47.425Z,6.23
2018-09-27T11:18:15.935Z,6.37
2018-09-27T11:20:44.463Z,6.23
2018-09-27T11:23:13.000Z,5.97
2018-09-27T11:25:41.958Z,6.00
2018-09-27T11:28:10.527Z,6.10
2018-09-27T11:30:40.804Z,6.47
2018-09-27T11:33:09.512Z,5.93
2018-09-27T11:35:37.992Z,6.10
2018-09-27T11:38:06.577Z,6.33
2018-09-27T11:40:35.150Z,6.23
2018-09-27T11:43:05.118Z,6.77
2018-09-27T11:45:33.640Z,6.13
2018-09-27T11:48:04.082Z,6.50
2018-09-27T11:50:32.641Z,6.90
2018-09-27T11:53:02.797Z,7.07
2018-09-27T11:55:31.360Z,6.43
2018-09-27T11:57:59.941Z,6.63
2018-09-27T12:00:28.542Z,6.97
2018-09-27T12:02:57.057Z,6.70
2018-09-27T12:05:25.711Z,6.43
2018-09-27T12:07:54.212Z,7.23
2018-09-27T12:10:23.645Z,6.90
2018-09-27T12:12:52.159Z,6.90
2018-09-27T12:15:20.684Z,7.40
2018-09-27T12:17:49.202Z,7.13
2018-09-27T12:20:17.727Z,7.27
2018-09-27T12:22:46.242Z,7.20
2018-09-27T12:25:15.004Z,8.40
2018-09-27T12:27:43.547Z,7.67
2018-09-27T12:30:12.038Z,7.40
2018-09-27T12:32:40.558Z,8.50
2018-09-27T12:35:09.113Z,8.37
2018-09-27T12:37:38.026Z,8.60
2018-09-27T12:40:06.525Z,8.00
2018-09-27T12:42:35.213Z,7.80
2018-09-27T12:45:04.616Z,8.30
2018-09-27T12:47:33.180Z,8.57
2018-09-27T12:50:02.726Z,9.10
2018-09-27T12:52:31.376Z,10.37
2018-09-27T12:54:59.856Z,10.37
2018-09-27T12:57:28.512Z,9.43
2018-09-27T12:59:57.065Z,9.90
2018-09-27T13:02:25.986Z,10.53
2018-09-27T13:04:54.529Z,10.30
2018-09-27T13:07:23.061Z,10.40
2018-09-27T13:09:51.652Z,9.90
2018-09-27T13:12:20.194Z,10.70
2018-09-27T13:14:48.782Z,10.60
2018-09-27T13:17:17.355Z,10.67
2018-09-27T13:19:45.882Z,11.67
2018-09-27T13:22:14.478Z,10.77
2018-09-27T13:24:43.003Z,11.97
2018-09-27T13:27:11.565Z,12.63
2018-09-27T13:29:40.138Z,11.67
2018-09-27T13:32:08.735Z,11.90
2018-09-27T13:34:37.250Z,13.20
2018-09-27T13:37:06.238Z,12.53
2018-09-27T13:39:35.103Z,13.53
2018-09-27T13:42:06.859Z,13.03
2018-09-27T13:44:35.369Z,12.77
2018-09-27T13:47:05.185Z,12.80
2018-09-27T13:49:33.684Z,12.43
2018-09-27T13:52:03.917Z,13.70
2018-09-27T13:54:32.469Z,12.73
2018-09-27T13:57:03.248Z,13.30
2018-09-27T13:59:31.857Z,13.47
2018-09-27T14:02:00.433Z,12.87
2018-09-27T14:04:29.022Z,13.23
2018-09-27T14:06:57.561Z,13.80
2018-09-27T14:09:26.346Z,13.77
2018-09-27T14:11:54.863Z,13.13
2018-09-27T14:14:23.389Z,13.27
2018-09-27T14:16:51.958Z,13.43
2018-09-27T14:19:20.541Z,13.57
2018-09-27T14:21:49.084Z,13.53
2018-09-27T14:24:17.617Z,13.73
2018-09-27T14:26:46.233Z,15.00
2018-09-27T14:29:14.794Z,14.03
2018-09-27T14:31:43.304Z,14.30
2018-09-27T14:34:11.841Z,15.90
2018-09-27T14:36:40.513Z,16.00
2018-09-27T14:39:10.228Z,15.13
2018-09-27T14:41:39.518Z,15.30
2018-09-27T14:44:08.372Z,15.60
2018-09-27T14:46:37.102Z,15.97
2018-09-27T14:49:06.054Z,15.80
2018-09-27T14:51:34.630Z,16.03
2018-09-27T14:54:05.986Z,14.67
2018-09-27T14:56:34.547Z,16.33
2018-09-27T14:59:04.884Z,16.53
2018-09-27T15:01:33.635Z,15.83
2018-09-27T15:04:03.764Z,16.90
2018-09-27T15:06:32.351Z,16.07
2018-09-27T15:09:00.925Z,17.17
2018-09-27T15:11:29.515Z,16.30
2018-09-27T15:13:58.513Z,16.53
2018-09-27T15:16:27.776Z,16.37
2018-09-27T15:18:56.265Z,18.03
2018-09-27T15:21:24.802Z,18.00
2018-09-27T15:23:53.350Z,17.50
2018-09-27T15:26:21.841Z,17.33
2018-09-27T15:28:50.569Z,16.00
2018-09-27T15:31:19.486Z,16.67
2018-09-27T15:33:48.068Z,16.27
2018-09-27T15:36:16.626Z,16.83
2018-09-27T15:38:45.297Z,17.13
2018-09-27T15:41:13.832Z,16.40
2018-09-27T15:43:42.371Z,16.43
2018-09-27T15:46:10.907Z,16.93
2018-09-27T15:48:39.959Z,15.87
2018-09-27T15:51:08.892Z,16.37
2018-09-27T15:53:37.741Z,16.33
2018-09-27T15:56:06.332Z,15.67
2018-09-27T15:58:35.140Z,15.83
2018-09-27T16:01:07.069Z,15.93
2018-09-27T16:03:35.636Z,15.20
2018-09-27T16:06:05.667Z,15.97
2018-09-27T16:08:34.201Z,16.43
2018-09-27T16:11:03.768Z,17.03
2018-09-27T16:13:32.328Z,15.93
2018-09-27T16:16:00.835Z,16.03
2018-09-27T16:18:29.385Z,17.13
2018-09-27T16:20:58.308Z,15.13
2018-09-27T16:23:26.833Z,16.37
2018-09-27T16:25:55.347Z,16.43
2018-09-27T16:28:23.975Z,16.70
2018-09-27T16:30:52.523Z,15.87
2018-09-27T16:33:21.468Z,16.47
2018-09-27T16:35:49.989Z,15.17
2018-09-27T16:38:18.481Z,15.37
2018-09-27T16:40:47.076Z,15.00
2018-09-27T16:43:15.777Z,14.43
2018-09-27T16:45:44.341Z,14.77
2018-09-27T16:48:12.879Z,14.90
2018-09-27T16:50:43.554Z,14.03
2018-09-27T16:53:12.114Z,14.03
2018-09-27T16:55:40.725Z,12.90
2018-09-27T16:58:09.686Z,13.53
2018-09-27T17:00:38.318Z,12.97
2018-09-27T17:03:06.900Z,12.70
2018-09-27T17:05:35.685Z,12.43
2018-09-27T17:08:05.418Z,13.83
2018-09-27T17:10:34.129Z,12.47
2018-09-27T17:13:04.425Z,12.73
2018-09-27T17:15:32.944Z,13.47
2018-09-27T17:18:03.178Z,12.77
2018-09-27T17:20:31.908Z,12.73
2018-09-27T17:23:00.462Z,13.00
2018-09-27T17:25:29.016Z,13.23
2018-09-27T17:27:57.587Z,12.33
2018-09-27T17:30:26.275Z,12.37
2018-09-27T17:32:54.931Z,12.83
2018-09-27T17:35:23.469Z,13.50
2018-09-27T17:37:52.048Z,13.00
2018-09-27T17:40:20.677Z,14.10
2018-09-27T17:42:49.170Z,13.23
2018-09-27T17:45:17.791Z,13.33
2018-09-27T17:47:46.382Z,13.20
2018-09-27T17:50:15.087Z,13.60
2018-09-27T17:52:44.382Z,12.80
2018-09-27T17:55:12.895Z,13.70
2018-09-27T17:57:41.466Z,13.80
2018-09-27T18:00:10.073Z,13.40
2018-09-27T18:02:38.621Z,13.10
2018-09-27T18:05:18.815Z,14.30
2018-09-27T18:07:35.782Z,13.97
2018-09-27T18:10:05.217Z,13.13
2018-09-27T18:12:33.796Z,13.43
2018-09-27T18:15:04.109Z,13.17
2018-09-27T18:17:32.784Z,13.20
2018-09-27T18:20:03.859Z,13.60
2018-09-27T18:22:32.477Z,13.60
2018-09-27T18:25:00.946Z,14.90
2018-09-27T18:27:29.665Z,15.40
2018-09-27T18:29:58.229Z,15.47
2018-09-27T18:32:26.819Z,15.70
2018-09-27T18:34:55.361Z,15.60
2018-09-27T18:37:23.982Z,15.60
2018-09-27T18:39:52.597Z,16.87
2018-09-27T18:42:21.239Z,16.27
2018-09-27T18:44:49.815Z,16.67
2018-09-27T18:47:18.381Z,16.33
2018-09-27T18:49:46.998Z,15.00
2018-09-27T18:52:15.735Z,16.63
2018-09-27T18:54:44.325Z,15.63
2018-09-27T18:57:12.891Z,16.93
2018-09-27T18:59:41.476Z,18.07
2018-09-27T19:02:10.038Z,18.03
2018-09-27T19:04:38.645Z,16.90
2018-09-27T19:07:07.570Z,16.77
2018-09-27T19:09:36.147Z,17.00
2018-09-27T19:12:06.152Z,17.37
2018-09-27T19:14:35.535Z,16.73
2018-09-27T19:17:07.577Z,16.83
2018-09-27T19:19:36.273Z,17.50
2018-09-27T19:22:06.279Z,16.63
2018-09-27T19:24:34.859Z,16.03
2018-09-27T19:27:05.728Z,18.40
2018-09-27T19:29:34.383Z,17.23
2018-09-27T19:32:05.214Z,17.33
2018-09-27T19:34:34.263Z,17.03
2018-09-27T19:37:04.569Z,17.67
2018-09-27T19:39:33.364Z,17.37
2018-09-27T19:42:04.284Z,18.73
2018-09-27T19:44:32.876Z,19.17
2018-09-27T19:47:02.874Z,19.60
2018-09-27T19:49:31.745Z,20.90
2018-09-27T19:52:00.422Z,20.23
2018-09-27T19:54:29.204Z,21.10
2018-09-27T19:56:57.844Z,20.73
2018-09-27T19:59:26.400Z,17.57
2018-09-27T20:01:55.369Z,17.47
2018-09-27T20:04:24.229Z,16.37
2018-09-27T20:06:53.196Z,16.47
2018-09-27T20:09:21.804Z,15.17
2018-09-27T20:11:51.035Z,13.83
2018-09-27T20:14:19.903Z,13.90
2018-09-27T20:16:53.647Z,12.67
2018-09-27T20:19:27.613Z,13.20
2018-09-27T20:21:59.458Z,12.70
2018-09-27T20:24:28.165Z,12.77
2018-09-27T20:27:04.145Z,13.00
2018-09-27T20:29:36.154Z,13.77
2018-09-27T20:32:06.030Z,12.77
2018-09-27T20:34:36.265Z,13.17
2018-09-27T20:37:05.305Z,13.77
2018-09-27T20:39:35.451Z,13.47
2018-09-27T20:42:13.687Z,13.67
2018-09-27T20:44:42.249Z,14.70
2018-09-27T20:47:11.482Z,14.17
2018-09-27T20:49:43.030Z,15.57
2018-09-27T20:52:11.722Z,17.03
2018-09-27T20:54:40.240Z,16.07
2018-09-27T20:57:09.143Z,18.77
2018-09-27T20:59:38.882Z,17.63
2018-09-27T21:02:10.884Z,19.13
2018-09-27T21:04:39.807Z,18.57
2018-09-27T21:07:08.345Z,19.73
2018-09-27T21:09:36.882Z,18.73
2018-09-27T21:12:05.453Z,20.30
2018-09-27T21:14:33.969Z,20.67
2018-09-27T21:17:07.298Z,20.73
2018-09-27T21:19:35.882Z,20.30
2018-09-27T21:22:09.618Z,21.00
2018-09-27T21:24:38.158Z,21.57
2018-09-27T21:27:06.877Z,22.47
2018-09-27T21:29:40.894Z,22.70
2018-09-27T21:32:09.521Z,22.53
2018-09-27T21:34:38.720Z,21.60
2018-09-27T21:37:07.248Z,22.30
2018-09-27T21:39:35.798Z,23.23
2018-09-27T21:42:05.211Z,22.40
2018-09-27T21:44:34.047Z,23.40
2018-09-27T21:47:09.784Z,21.97
2018-09-27T21:49:38.312Z,21.97
2018-09-27T21:52:06.891Z,23.07
2018-09-27T21:54:35.534Z,22.83
2018-09-27T21:57:07.054Z,23.57
2018-09-27T21:59:35.554Z,22.77
2018-09-27T22:02:05.647Z,22.27
2018-09-27T22:04:38.261Z,21.27
2018-09-27T22:07:07.053Z,22.57
2018-09-27T22:09:39.469Z,23.27
2018-09-27T22:12:08.068Z,24.97
2018-09-27T22:14:36.596Z,23.53
2018-09-27T22:17:05.174Z,24.00
2018-09-27T22:19:33.859Z,22.37
2018-09-27T22:22:04.135Z,21.93
2018-09-27T22:24:32.933Z,22.13
2018-09-27T22:27:02.874Z,22.20
2018-09-27T22:29:31.374Z,20.77
2018-09-27T22:31:59.915Z,21.40
2018-09-27T22:34:28.448Z,21.63
2018-09-27T22:36:57.446Z,22.07
2018-09-27T22:39:25.946Z,21.80
2018-09-27T22:41:54.587Z,21.80
2018-09-27T22:44:23.083Z,20.83
2018-09-27T22:46:51.668Z,22.13
2018-09-27T22:49:20.207Z,21.40
2018-09-27T22:51:48.703Z,21.73
2018-09-27T22:54:17.225Z,20.73
2018-09-27T22:56:45.743Z,22.40
2018-09-27T22:59:14.268Z,21.60
2018-09-27T23:01:42.902Z,19.77
2018-09-27T23:04:11.461Z,19.77
2018-09-27T23:06:40.302Z,20.10
2018-09-27T23:09:08.942Z,20.37
2018-09-27T23:11:37.481Z,20.27
2018-09-27T23:14:06.393Z,21.70
2018-09-27T23:16:34.940Z,19.80
2018-09-27T23:19:05.280Z,18.83
2018-09-27T23:21:33.876Z,20.27
2018-09-27T23:24:04.160Z,19.47
2018-09-27T23:26:32.680Z,19.43
2018-09-27T23:29:02.768Z,19.27
2018-09-27T23:31:31.330Z,18.97
2018-09-27T23:34:00.094Z,19.77
2018-09-27T23:36:28.683Z,19.20
2018-09-27T23:38:59.344Z,19.10
2018-09-27T23:41:27.861Z,18.97
2018-09-27T23:43:56.370Z,18.63
2018-09-27T23:46:24.941Z,19.63
2018-09-27T23:48:53.463Z,18.83
2018-09-27T23:51:21.989Z,19.17
2018-09-27T23:53:50.523Z,18.60
2018-09-27T23:56:19.070Z,19.20
2018-09-27T23:58:47.560Z,20.43
